createdAt,value
2022-08-25T00:02:17.598Z,1.60
2022-08-25T00:04:44.808Z,1.90
2022-08-25T00:07:20.414Z,1.70
2022-08-25T00:09:47.157Z,1.73
2022-08-25T00:12:15.121Z,1.70
2022-08-25T00:14:43.071Z,1.60
2022-08-25T00:17:11.334Z,1.87
2022-08-25T00:19:39.087Z,2.20
2022-08-25T00:22:08.063Z,1.90
2022-08-25T00:24:35.315Z,1.80
2022-08-25T00:27:02.027Z,2.00
2022-08-25T00:29:29.525Z,1.90
2022-08-25T00:31:59.185Z,2.07
2022-08-25T00:34:30.846Z,2.20
2022-08-25T00:36:57.472Z,1.90
2022-08-25T00:39:25.463Z,2.03
2022-08-25T00:41:56.653Z,2.10
2022-08-25T00:44:25.294Z,2.10
2022-08-25T00:46:54.902Z,2.00
2022-08-25T00:49:27.084Z,1.93
2022-08-25T00:52:15.942Z,1.77
2022-08-25T00:54:52.283Z,2.03
2022-08-25T00:57:28.967Z,1.80
2022-08-25T01:00:03.485Z,2.07
2022-08-25T01:02:31.149Z,1.80
2022-08-25T01:04:58.797Z,2.20
2022-08-25T01:07:25.502Z,1.77
2022-08-25T01:09:52.714Z,1.97
2022-08-25T01:12:20.549Z,2.07
2022-08-25T01:14:48.697Z,1.90
2022-08-25T01:17:15.703Z,2.00
2022-08-25T01:19:42.596Z,2.00
2022-08-25T01:22:12.419Z,1.97
2022-08-25T01:24:51.287Z,2.30
2022-08-25T01:27:17.882Z,1.97
2022-08-25T01:29:44.499Z,2.23
2022-08-25T01:32:13.625Z,2.00
2022-08-25T01:34:43.215Z,2.07
2022-08-25T01:37:13.960Z,2.03
2022-08-25T01:39:42.526Z,2.00
2022-08-25T01:42:28.124Z,2.50
2022-08-25T01:44:57.295Z,2.27
2022-08-25T01:47:24.365Z,2.20
2022-08-25T01:49:51.804Z,2.30
2022-08-25T01:52:40.088Z,2.10
2022-08-25T01:55:07.919Z,2.00
2022-08-25T01:57:34.485Z,2.30
2022-08-25T02:00:01.987Z,2.40
2022-08-25T02:02:28.605Z,2.63
2022-08-25T02:04:59.784Z,2.23
2022-08-25T02:07:26.792Z,2.30
2022-08-25T02:09:53.285Z,2.43
2022-08-25T02:12:20.660Z,2.10
2022-08-25T02:14:47.102Z,2.70
2022-08-25T02:17:13.611Z,2.17
2022-08-25T02:19:40.203Z,2.57
2022-08-25T02:22:06.984Z,2.40
2022-08-25T02:24:33.513Z,2.50
2022-08-25T02:27:00.016Z,2.33
2022-08-25T02:29:26.624Z,2.47
2022-08-25T02:31:53.477Z,2.20
2022-08-25T02:34:20.719Z,2.60
2022-08-25T02:36:49.887Z,2.60
2022-08-25T02:39:17.554Z,2.60
2022-08-25T02:41:44.238Z,2.60
2022-08-25T02:44:10.816Z,2.70
2022-08-25T02:46:37.888Z,2.40
2022-08-25T02:49:06.376Z,2.60
2022-08-25T02:51:34.630Z,2.70
2022-08-25T02:54:03.710Z,2.50
2022-08-25T02:56:31.862Z,2.33
2022-08-25T02:59:00.557Z,2.60
2022-08-25T03:01:30.188Z,2.70
2022-08-25T03:03:57.519Z,2.87
2022-08-25T03:06:25.858Z,2.67
2022-08-25T03:08:53.252Z,2.83
2022-08-25T03:11:20.521Z,2.90
2022-08-25T03:13:48.088Z,2.90
2022-08-25T03:16:14.686Z,2.53
2022-08-25T03:18:42.591Z,3.03
2022-08-25T03:21:11.723Z,2.90
2022-08-25T03:23:41.334Z,2.77
2022-08-25T03:26:27.255Z,2.40
2022-08-25T03:28:55.764Z,2.63
2022-08-25T03:31:26.185Z,3.03
2022-08-25T03:33:53.549Z,2.73
2022-08-25T03:36:20.096Z,3.10
2022-08-25T03:38:46.674Z,2.90
2022-08-25T03:41:16.053Z,2.63
2022-08-25T03:43:45.042Z,2.10
2022-08-25T03:46:43.492Z,2.20
2022-08-25T03:49:16.221Z,2.77
2022-08-25T03:51:47.331Z,2.37
2022-08-25T03:54:16.131Z,3.17
2022-08-25T03:56:43.498Z,2.53
2022-08-25T03:59:10.291Z,2.90
2022-08-25T04:01:41.883Z,2.67
2022-08-25T04:04:10.638Z,3.00
2022-08-25T04:06:39.036Z,2.87
2022-08-25T04:09:05.609Z,2.90
2022-08-25T04:11:32.156Z,3.10
2022-08-25T04:14:01.157Z,7.07
2022-08-25T04:16:38.616Z,3.00
2022-08-25T04:19:08.874Z,2.77
2022-08-25T04:21:37.584Z,3.10
2022-08-25T04:24:04.867Z,2.80
2022-08-25T04:26:37.205Z,3.40
2022-08-25T04:29:06.641Z,2.70
2022-08-25T04:31:34.056Z,3.17
2022-08-25T04:34:14.807Z,2.83
2022-08-25T04:36:52.766Z,3.17
2022-08-25T04:39:23.277Z,2.70
2022-08-25T04:41:52.105Z,2.73
2022-08-25T04:44:18.752Z,2.90
2022-08-25T04:46:45.950Z,3.30
2022-08-25T04:49:14.873Z,2.83
2022-08-25T04:51:41.915Z,3.27
2022-08-25T04:54:12.428Z,3.10
2022-08-25T04:56:43.105Z,3.40
2022-08-25T04:59:15.726Z,3.20
2022-08-25T05:01:43.898Z,3.30
2022-08-25T05:04:14.678Z,3.20
2022-08-25T05:06:54.935Z,3.10
2022-08-25T05:09:25.100Z,3.33
2022-08-25T05:11:52.444Z,3.60
2022-08-25T05:14:29.910Z,4.13
2022-08-25T05:16:58.020Z,3.10
2022-08-25T05:19:26.493Z,3.43
2022-08-25T05:21:53.826Z,3.43
2022-08-25T05:24:21.577Z,3.50
2022-08-25T05:26:48.135Z,3.07
2022-08-25T05:29:15.696Z,3.60
2022-08-25T05:31:48.290Z,3.27
2022-08-25T05:34:18.358Z,3.43
2022-08-25T05:36:44.929Z,3.63
2022-08-25T05:39:11.752Z,3.67
2022-08-25T05:41:38.663Z,3.70
2022-08-25T05:44:05.685Z,3.97
2022-08-25T05:46:32.921Z,3.60
2022-08-25T05:49:02.076Z,3.83
2022-08-25T05:51:29.431Z,3.77
2022-08-25T05:53:56.074Z,4.43
2022-08-25T05:56:22.995Z,4.40
2022-08-25T05:58:50.288Z,4.07
2022-08-25T06:01:45.248Z,4.37
2022-08-25T06:04:12.788Z,3.73
2022-08-25T06:06:40.461Z,3.23
2022-08-25T06:09:09.892Z,3.33
2022-08-25T06:11:39.737Z,3.90
2022-08-25T06:14:07.594Z,3.40
2022-08-25T06:16:34.350Z,4.03
2022-08-25T06:19:01.534Z,3.73
2022-08-25T06:21:28.237Z,3.80
2022-08-25T06:23:54.995Z,4.47
2022-08-25T06:26:21.757Z,4.13
2022-08-25T06:28:52.436Z,3.53
2022-08-25T06:31:20.493Z,3.87
2022-08-25T06:33:47.249Z,3.77
2022-08-25T06:36:15.218Z,4.00
2022-08-25T06:38:42.089Z,4.60
2022-08-25T06:41:12.701Z,3.93
2022-08-25T06:43:46.624Z,3.80
2022-08-25T06:46:35.836Z,4.07
2022-08-25T06:49:09.785Z,4.77
2022-08-25T06:51:36.560Z,4.50
2022-08-25T06:54:04.927Z,3.87
2022-08-25T06:56:59.756Z,4.40
2022-08-25T06:59:32.331Z,3.67
2022-08-25T07:02:00.997Z,4.70
2022-08-25T07:04:30.171Z,4.17
2022-08-25T07:06:57.199Z,3.83
2022-08-25T07:09:24.158Z,3.87
2022-08-25T07:11:51.125Z,3.73
2022-08-25T07:14:18.564Z,5.33
2022-08-25T07:16:50.418Z,3.90
2022-08-25T07:19:23.145Z,4.03
2022-08-25T07:21:52.989Z,3.90
2022-08-25T07:24:20.405Z,3.80
2022-08-25T07:26:47.820Z,4.10
2022-08-25T07:32:08.736Z,3.87
2022-08-25T07:34:56.015Z,3.80
2022-08-25T07:37:47.774Z,3.80
2022-08-25T07:40:23.319Z,3.70
2022-08-25T07:42:51.946Z,3.30
2022-08-25T07:45:21.762Z,3.40
2022-08-25T07:47:56.967Z,3.70
2022-08-25T07:50:27.428Z,3.50
2022-08-25T07:52:56.824Z,3.53
2022-08-25T07:55:26.270Z,4.03
2022-08-25T07:58:05.727Z,4.20
2022-08-25T08:00:34.098Z,3.97
2022-08-25T08:03:15.954Z,3.87
2022-08-25T08:05:50.799Z,4.20
2022-08-25T08:08:19.066Z,3.47
2022-08-25T08:11:04.637Z,3.60
2022-08-25T08:13:37.889Z,3.70
2022-08-25T08:16:13.190Z,3.83
2022-08-25T08:18:40.028Z,3.50
2022-08-25T08:21:13.236Z,3.60
2022-08-25T08:23:47.656Z,3.70
2022-08-25T08:26:15.252Z,3.97
2022-08-25T08:28:43.613Z,3.83
2022-08-25T08:31:12.893Z,4.00
2022-08-25T08:33:40.835Z,4.00
2022-08-25T08:36:12.021Z,3.50
2022-08-25T08:38:42.042Z,3.87
2022-08-25T08:42:07.354Z,3.27
2022-08-25T08:44:36.792Z,3.50
2022-08-25T08:47:13.282Z,3.13
2022-08-25T08:49:47.351Z,3.13
2022-08-25T08:52:17.046Z,3.27
2022-08-25T08:54:46.608Z,3.37
2022-08-25T08:57:19.825Z,4.20
2022-08-25T08:59:48.986Z,3.83
2022-08-25T09:02:51.767Z,3.73
2022-08-25T09:05:21.530Z,3.70
2022-08-25T09:08:20.553Z,3.33
2022-08-25T09:10:58.621Z,3.17
2022-08-25T09:13:51.043Z,3.40
2022-08-25T09:16:58.186Z,2.80
2022-08-25T09:19:58.282Z,3.33
2022-08-25T09:22:36.200Z,3.00
2022-08-25T09:25:48.756Z,4.00
2022-08-25T09:28:21.607Z,3.57
2022-08-25T09:31:22.877Z,3.20
2022-08-25T09:33:57.204Z,3.30
2022-08-25T09:36:27.263Z,3.67
2022-08-25T09:38:54.319Z,3.17
2022-08-25T09:41:42.882Z,3.30
2022-08-25T09:44:25.882Z,2.93
2022-08-25T09:47:05.930Z,3.47
2022-08-25T09:49:44.077Z,3.47
2022-08-25T09:52:38.825Z,3.23
2022-08-25T09:55:08.011Z,3.43
2022-08-25T09:57:45.091Z,3.40
2022-08-25T10:00:15.569Z,3.17
2022-08-25T10:02:44.646Z,2.63
2022-08-25T10:05:23.701Z,3.13
2022-08-25T10:07:57.642Z,3.50
2022-08-25T10:10:41.828Z,3.47
2022-08-25T10:13:22.894Z,3.93
2022-08-25T10:16:24.256Z,4.07
2022-08-25T10:19:13.476Z,3.00
2022-08-25T10:21:43.030Z,2.60
2022-08-25T10:24:15.571Z,3.30
2022-08-25T10:26:58.751Z,3.33
2022-08-25T10:29:50.225Z,3.50
2022-08-25T10:32:40.326Z,3.07
2022-08-25T10:35:14.315Z,3.37
2022-08-25T10:37:49.418Z,3.17
2022-08-25T10:40:26.046Z,3.47
2022-08-25T10:43:23.683Z,3.43
2022-08-25T10:46:14.761Z,3.13
2022-08-25T10:49:01.990Z,2.83
2022-08-25T10:51:35.545Z,3.13
2022-08-25T10:54:13.290Z,3.20
2022-08-25T10:57:15.728Z,3.33
2022-08-25T11:00:02.842Z,2.83
2022-08-25T11:02:38.222Z,3.30
2022-08-25T11:05:36.872Z,3.17
2022-08-25T11:08:42.409Z,3.30
2022-08-25T11:11:24.318Z,3.33
2022-08-25T11:13:53.654Z,3.00
2022-08-25T11:16:29.326Z,2.60
2022-08-25T11:19:06.996Z,3.20
2022-08-25T11:21:59.375Z,3.00
2022-08-25T11:25:04.070Z,2.90
2022-08-25T11:27:56.800Z,2.70
2022-08-25T11:30:24.265Z,2.87
2022-08-25T11:32:54.599Z,3.07
2022-08-25T11:35:34.979Z,3.00
2022-08-25T11:38:29.441Z,2.50
2022-08-25T11:41:11.469Z,2.40
2022-08-25T11:43:41.177Z,2.57
2022-08-25T11:46:27.837Z,2.90
2022-08-25T11:49:16.348Z,2.60
2022-08-25T11:51:47.597Z,2.97
2022-08-25T11:54:21.021Z,2.37
2022-08-25T11:57:02.256Z,2.60
2022-08-25T11:59:54.873Z,2.60
2022-08-25T12:02:36.813Z,2.50
2022-08-25T12:05:08.760Z,2.63
2022-08-25T12:08:07.504Z,2.30
2022-08-25T12:10:52.262Z,2.57
2022-08-25T12:13:39.667Z,2.50
2022-08-25T12:16:06.953Z,2.40
2022-08-25T12:18:33.798Z,5.57
2022-08-25T12:21:01.276Z,12.07
2022-08-25T12:23:44.995Z,2.53
2022-08-25T12:26:36.579Z,2.40
2022-08-25T12:29:08.828Z,2.70
2022-08-25T12:31:55.210Z,2.40
2022-08-25T12:34:38.537Z,2.30
2022-08-25T12:37:16.520Z,2.43
2022-08-25T12:39:58.661Z,2.07
2022-08-25T12:42:37.915Z,2.20
2022-08-25T12:45:20.082Z,2.10
2022-08-25T12:47:48.726Z,2.40
2022-08-25T12:50:29.613Z,2.10
2022-08-25T12:53:07.413Z,2.03
2022-08-25T12:55:35.000Z,2.00
2022-08-25T12:58:02.324Z,1.80
2022-08-25T13:00:37.482Z,1.70
2022-08-25T13:03:31.928Z,2.10
2022-08-25T13:06:30.313Z,1.90
2022-08-25T13:09:28.538Z,1.83
2022-08-25T13:12:27.413Z,1.83
2022-08-25T13:14:57.026Z,2.10
2022-08-25T13:17:29.716Z,2.00
2022-08-25T13:20:13.247Z,2.17
2022-08-25T13:22:40.418Z,1.73
2022-08-25T13:25:15.857Z,2.00
2022-08-25T13:27:49.029Z,1.70
2022-08-25T13:30:24.464Z,1.73
2022-08-25T13:32:50.956Z,1.87
2022-08-25T13:35:24.656Z,1.73
2022-08-25T13:37:53.900Z,2.00
2022-08-25T13:40:29.421Z,1.80
2022-08-25T13:43:01.222Z,2.30
2022-08-25T13:45:33.970Z,2.00
2022-08-25T13:48:22.723Z,2.30
2022-08-25T13:50:51.822Z,2.00
2022-08-25T13:53:25.260Z,1.83
2022-08-25T13:55:54.668Z,1.90
2022-08-25T13:58:38.700Z,1.83
2022-08-25T14:01:47.841Z,2.03
2022-08-25T14:04:27.810Z,1.97
2022-08-25T14:07:19.424Z,2.10
2022-08-25T14:10:30.162Z,1.87
2022-08-25T14:13:31.977Z,1.97
2022-08-25T14:16:22.212Z,1.93
2022-08-25T14:18:58.864Z,2.20
2022-08-25T14:21:28.977Z,2.10
2022-08-25T14:23:56.493Z,1.77
2022-08-25T14:26:24.139Z,1.73
2022-08-25T14:28:53.331Z,1.70
2022-08-25T14:31:32.034Z,1.90
2022-08-25T14:34:09.054Z,1.90
2022-08-25T14:36:39.007Z,2.10
2022-08-25T14:39:08.707Z,1.70
2022-08-25T14:41:38.748Z,2.53
2022-08-25T14:44:05.652Z,2.00
2022-08-25T14:46:36.433Z,2.20
2022-08-25T14:49:07.119Z,1.97
2022-08-25T14:51:36.608Z,2.10
2022-08-25T14:54:06.142Z,1.80
2022-08-25T14:56:33.242Z,2.33
2022-08-25T14:59:02.080Z,2.03
2022-08-25T15:01:30.056Z,2.07
2022-08-25T15:04:27.378Z,1.87
2022-08-25T15:07:01.564Z,1.93
2022-08-25T15:09:33.455Z,2.05
2022-08-25T15:12:00.282Z,1.77
2022-08-25T15:14:28.525Z,1.90
2022-08-25T15:16:59.574Z,2.10
2022-08-25T15:19:26.998Z,2.28
2022-08-25T15:21:54.307Z,2.30
2022-08-25T15:24:25.690Z,2.10
2022-08-25T15:26:55.912Z,2.10
2022-08-25T15:29:30.281Z,2.05
2022-08-25T15:31:58.488Z,1.60
2022-08-25T15:34:25.097Z,1.90
2022-08-25T15:36:51.981Z,2.10
2022-08-25T15:39:19.243Z,1.95
2022-08-25T15:41:52.439Z,2.10
2022-08-25T15:44:19.736Z,2.10
2022-08-25T15:46:50.117Z,1.88
2022-08-25T15:49:20.660Z,1.90
2022-08-25T15:51:52.340Z,1.73
2022-08-25T15:54:20.154Z,1.85
2022-08-25T15:56:47.283Z,2.30
2022-08-25T15:59:14.369Z,2.20
2022-08-25T16:01:41.759Z,1.63
2022-08-25T16:04:08.336Z,1.80
2022-08-25T16:06:35.065Z,2.20
2022-08-25T16:09:01.921Z,1.75
2022-08-25T16:11:31.503Z,1.90
2022-08-25T16:13:58.373Z,1.93
2022-08-25T16:16:28.119Z,2.27
2022-08-25T16:18:57.991Z,1.97
2022-08-25T16:21:30.367Z,2.20
2022-08-25T16:24:07.377Z,1.83
2022-08-25T16:26:36.536Z,2.30
2022-08-25T16:29:06.965Z,2.30
2022-08-25T16:31:33.593Z,1.97
2022-08-25T16:34:01.530Z,2.20
2022-08-25T16:36:28.934Z,2.20
2022-08-25T16:38:57.359Z,2.47
2022-08-25T16:41:27.096Z,2.00
2022-08-25T16:43:54.149Z,2.10
2022-08-25T16:46:22.101Z,2.30
2022-08-25T16:48:50.821Z,2.17
2022-08-25T16:51:22.460Z,1.90
2022-08-25T16:54:10.652Z,2.20
2022-08-25T16:56:37.787Z,2.03
2022-08-25T16:59:06.295Z,2.30
2022-08-25T17:01:35.403Z,2.13
2022-08-25T17:04:02.914Z,2.13
2022-08-25T17:06:33.117Z,2.10
2022-08-25T17:08:59.544Z,2.83
2022-08-25T17:11:30.427Z,2.17
2022-08-25T17:14:00.696Z,1.70
2022-08-25T17:16:31.332Z,2.20
2022-08-25T17:19:04.103Z,2.10
2022-08-25T17:21:35.348Z,2.10
2022-08-25T17:24:04.865Z,2.30
2022-08-25T17:26:31.481Z,1.93
2022-08-25T17:29:00.879Z,1.87
2022-08-25T17:31:29.969Z,2.27
2022-08-25T17:33:57.607Z,1.83
2022-08-25T17:36:26.975Z,2.40
2022-08-25T17:38:54.664Z,2.20
2022-08-25T17:41:23.752Z,2.10
2022-08-25T17:43:50.277Z,2.00
2022-08-25T17:46:17.762Z,2.17
2022-08-25T17:48:44.940Z,2.40
2022-08-25T17:51:12.012Z,1.80
2022-08-25T17:53:38.629Z,2.10
2022-08-25T17:56:09.599Z,2.30
2022-08-25T17:58:36.964Z,2.20
2022-08-25T18:01:05.933Z,2.30
2022-08-25T18:03:33.868Z,2.33
2022-08-25T18:06:00.790Z,2.57
2022-08-25T18:08:35.229Z,2.40
2022-08-25T18:11:04.614Z,2.20
2022-08-25T18:13:31.585Z,2.40
2022-08-25T18:15:58.493Z,2.80
2022-08-25T18:18:24.930Z,2.40
2022-08-25T18:20:52.360Z,2.57
2022-08-25T18:23:19.761Z,2.57
2022-08-25T18:25:48.396Z,2.57
2022-08-25T18:28:15.117Z,2.57
2022-08-25T18:30:42.310Z,2.50
2022-08-25T18:33:08.918Z,2.70
2022-08-25T18:35:36.016Z,2.50
2022-08-25T18:38:24.871Z,2.23
2022-08-25T18:40:56.821Z,2.83
2022-08-25T18:43:23.297Z,2.77
2022-08-25T18:45:49.808Z,2.63
2022-08-25T18:48:19.742Z,2.73
2022-08-25T18:50:50.674Z,2.03
2022-08-25T18:53:19.124Z,2.60
2022-08-25T18:56:04.002Z,2.33
2022-08-25T18:58:30.422Z,2.50
2022-08-25T19:00:56.879Z,2.60
2022-08-25T19:03:23.482Z,3.07
2022-08-25T19:05:57.454Z,3.70
2022-08-25T19:08:25.007Z,3.57
2022-08-25T19:10:53.257Z,3.20
2022-08-25T19:13:23.017Z,2.80
2022-08-25T19:15:51.331Z,2.70
2022-08-25T19:18:18.589Z,2.77
2022-08-25T19:20:52.568Z,2.50
2022-08-25T19:23:28.747Z,2.40
2022-08-25T19:25:55.673Z,2.70
2022-08-25T19:28:24.820Z,2.43
2022-08-25T19:30:51.383Z,2.50
2022-08-25T19:33:42.683Z,2.60
2022-08-25T19:36:08.816Z,2.80
2022-08-25T19:38:37.643Z,3.27
2022-08-25T19:41:13.945Z,2.80
2022-08-25T19:43:55.126Z,3.03
2022-08-25T19:46:25.833Z,2.70
2022-08-25T19:49:11.338Z,2.27
2022-08-25T19:51:44.672Z,2.87
2022-08-25T19:54:13.827Z,2.77
2022-08-25T19:56:54.018Z,2.50
2022-08-25T19:59:34.428Z,3.33
2022-08-25T20:02:15.040Z,2.20
2022-08-25T20:04:41.799Z,3.40
2022-08-25T20:07:08.894Z,3.10
2022-08-25T20:09:40.747Z,3.00
2022-08-25T20:12:09.127Z,3.20
2022-08-25T20:14:36.451Z,2.80
2022-08-25T20:17:03.942Z,2.97
2022-08-25T20:19:41.194Z,2.70
2022-08-25T20:22:11.262Z,2.80
2022-08-25T20:24:51.061Z,2.93
2022-08-25T20:27:27.836Z,2.90
2022-08-25T20:29:54.328Z,3.10
2022-08-25T20:32:21.195Z,2.57
2022-08-25T20:34:48.472Z,2.90
2022-08-25T20:37:20.934Z,2.90
2022-08-25T20:39:47.963Z,2.77
2022-08-25T20:42:14.954Z,2.67
2022-08-25T20:44:42.261Z,2.70
2022-08-25T20:47:10.542Z,2.80
2022-08-25T20:49:39.192Z,3.47
2022-08-25T20:52:07.457Z,2.93
2022-08-25T20:54:34.217Z,2.67
2022-08-25T20:57:01.118Z,2.80
2022-08-25T20:59:29.042Z,3.37
2022-08-25T21:01:56.155Z,8.33
2022-08-25T21:04:24.721Z,2.70
2022-08-25T21:06:51.596Z,2.87
2022-08-25T21:09:21.442Z,2.60
2022-08-25T21:11:48.296Z,2.87
2022-08-25T21:14:16.412Z,2.70
2022-08-25T21:16:47.177Z,2.77
2022-08-25T21:19:26.701Z,2.60
2022-08-25T21:21:59.815Z,2.87
2022-08-25T21:24:27.927Z,2.80
2022-08-25T21:26:56.398Z,3.00
2022-08-25T21:29:25.779Z,2.50
2022-08-25T21:31:55.459Z,2.90
2022-08-25T21:34:21.980Z,3.00
2022-08-25T21:36:48.941Z,2.70
2022-08-25T21:39:15.525Z,2.67
2022-08-25T21:41:44.128Z,2.60
2022-08-25T21:44:13.768Z,2.70
2022-08-25T21:46:41.713Z,2.70
2022-08-25T21:49:20.421Z,3.00
2022-08-25T21:51:47.040Z,2.53
2022-08-25T21:54:17.286Z,2.50
2022-08-25T21:56:49.668Z,2.70
2022-08-25T21:59:21.667Z,2.70
2022-08-25T22:01:48.376Z,2.90
2022-08-25T22:04:15.421Z,2.60
2022-08-25T22:06:42.230Z,2.50
2022-08-25T22:09:12.740Z,2.40
2022-08-25T22:11:41.879Z,2.60
2022-08-25T22:14:09.747Z,2.63
2022-08-25T22:16:37.349Z,2.57
2022-08-25T22:19:05.797Z,2.40
2022-08-25T22:21:33.427Z,2.97
2022-08-25T22:24:00.393Z,2.80
2022-08-25T22:26:31.361Z,2.80
2022-08-25T22:28:59.342Z,2.90
2022-08-25T22:31:27.486Z,2.73
2022-08-25T22:33:55.603Z,2.60
2022-08-25T22:36:33.476Z,2.63
2022-08-25T22:39:00.248Z,3.10
2022-08-25T22:41:29.097Z,2.70
2022-08-25T22:43:56.776Z,3.23
2022-08-25T22:46:27.920Z,2.93
2022-08-25T22:48:55.662Z,2.73
2022-08-25T22:51:28.283Z,3.00
2022-08-25T22:53:54.731Z,2.90
2022-08-25T22:56:29.722Z,3.03
2022-08-25T22:58:59.608Z,3.10
2022-08-25T23:01:26.080Z,3.07
2022-08-25T23:03:52.659Z,2.87
2022-08-25T23:06:24.717Z,3.00
2022-08-25T23:08:53.539Z,3.20
2022-08-25T23:11:21.952Z,3.00
2022-08-25T23:13:49.186Z,2.87
2022-08-25T23:16:16.724Z,2.67
2022-08-25T23:18:44.901Z,3.63
2022-08-25T23:21:38.207Z,2.97
2022-08-25T23:24:08.232Z,2.87
2022-08-25T23:26:34.695Z,3.07
2022-08-25T23:29:03.241Z,3.10
2022-08-25T23:31:43.891Z,3.60
2022-08-25T23:34:10.614Z,3.27
2022-08-25T23:36:37.934Z,2.93
2022-08-25T23:39:05.715Z,3.43
2022-08-25T23:41:34.220Z,3.77
2022-08-25T23:44:05.202Z,3.70
2022-08-25T23:46:33.046Z,3.50
2022-08-25T23:48:59.669Z,3.40
2022-08-25T23:51:29.724Z,3.57
2022-08-25T23:53:57.459Z,3.53
2022-08-25T23:56:25.838Z,3.70
2022-08-25T23:58:52.509Z,3.30
